Time;durP1;ratioP1;P1;durP2;ratioP2;P2;SDS_P1;SDS_P2;PMS_P1;PMS_P2;Temp;Humidity;BMP_temperature;BMP_pressure;BME280_temperature;BME280_humidity;BME280_pressure;Samples;Min_cycle;Max_cycle;Signal;HPM_P1;HPM_P2
2021/07/15 00:00:09;;;;;;;8.50;3.83;;;;;;;20.08;68.86;101834.06;5043293;28;20135;-44
2021/07/15 00:02:36;;;;;;;;;;;;;;;20.07;68.48;101840.88;5043012;28;20572;-43
2021/07/15 00:05:08;;;;;;;6.43;2.75;;;;;;;20.04;68.42;101832.00;5045187;28;19932;-43
2021/07/15 00:07:35;;;;;;;6.28;3.15;;;;;;;19.91;68.89;101835.44;5042914;28;20057;-43
2021/07/15 00:10:07;;;;;;;6.72;2.83;;;;;;;19.91;68.67;101833.44;5046679;28;20139;-43
2021/07/15 00:12:34;;;;;;;8.68;3.35;;;;;;;19.91;68.49;101827.81;5048047;28;20110;-46
2021/07/15 00:15:04;;;;;;;4.40;2.80;;;;;;;19.80;68.90;101829.69;5045005;28;20053;-43
2021/07/15 00:17:31;;;;;;;8.77;3.20;;;;;;;19.78;69.02;101831.25;5044956;28;20115;-46
2021/07/15 00:19:58;;;;;;;5.50;2.75;;;;;;;19.82;68.83;101830.13;5044890;28;20052;-43
2021/07/15 00:22:26;;;;;;;6.03;3.00;;;;;;;19.83;69.18;101825.34;5026878;28;20049;-42
2021/07/15 00:24:53;;;;;;;6.55;2.80;;;;;;;19.79;68.93;101830.91;5025938;28;20063;-45
2021/07/15 00:27:20;;;;;;;6.93;2.70;;;;;;;19.64;69.48;101833.91;5044916;28;20049;-44
2021/07/15 00:29:47;;;;;;;5.45;2.80;;;;;;;19.48;69.78;101836.91;5051154;28;20057;-52
2021/07/15 00:32:14;;;;;;;7.05;3.00;;;;;;;19.54;69.71;101826.94;5049787;28;20502;-44
2021/07/15 00:34:40;;;;;;;3.65;2.40;;;;;;;19.47;69.76;101818.41;5054550;28;20045;-43
2021/07/15 00:37:07;;;;;;;6.88;3.17;;;;;;;19.54;69.53;101823.34;5050712;28;20135;-50
2021/07/15 00:39:34;;;;;;;7.30;3.08;;;;;;;19.51;69.51;101812.84;5045867;28;20147;-46
2021/07/15 00:42:01;;;;;;;6.18;2.95;;;;;;;19.45;69.46;101829.22;5048747;28;20072;-52
2021/07/15 00:44:27;;;;;;;6.85;2.83;;;;;;;19.33;69.85;101829.41;5053860;28;20110;-43
2021/07/15 00:46:56;;;;;;;10.32;3.22;;;;;;;19.14;70.52;101826.72;5048512;28;20052;-43
2021/07/15 00:49:23;;;;;;;6.53;2.60;;;;;;;19.18;70.28;101827.56;5046768;28;20045;-42
2021/07/15 00:51:50;;;;;;;5.55;2.90;;;;;;;19.21;70.38;101847.28;5048033;28;20136;-44
2021/07/15 00:54:17;;;;;;;8.80;3.88;;;;;;;19.26;70.31;101834.91;5049569;28;20053;-50
2021/07/15 00:56:44;;;;;;;4.55;3.08;;;;;;;19.29;70.14;101839.78;5048959;28;20165;-45
2021/07/15 00:59:11;;;;;;;6.65;2.88;;;;;;;19.39;69.84;101828.72;5049533;28;20123;-43
2021/07/15 01:01:38;;;;;;;7.50;2.63;;;;;;;19.36;70.03;101834.25;5057254;28;20055;-43
2021/07/15 01:04:09;;;;;;;5.95;3.30;;;;;;;19.26;70.40;101824.50;5047194;28;20040;-43
2021/07/15 01:06:35;;;;;;;3.13;2.60;;;;;;;19.25;70.12;101828.47;5049586;28;20045;-43
2021/07/15 01:09:03;;;;;;;7.78;3.05;;;;;;;19.28;69.90;101821.31;5048138;28;20049;-43
2021/07/15 01:12:17;;;;;;;5.88;2.90;;;;;;;19.24;70.10;101818.47;5028871;28;20524;-45
2021/07/15 01:15:15;;;;;;;5.05;2.78;;;;;;;19.19;69.84;101821.59;5027326;28;20053;-47
2021/07/15 01:18:05;;;;;;;4.22;2.30;;;;;;;19.17;70.02;101826.75;5000640;28;20435;-48
2021/07/15 01:21:00;;;;;;;6.43;2.33;;;;;;;19.20;69.65;101828.81;5029662;28;20709;-43
2021/07/15 01:23:48;;;;;;;3.92;2.35;;;;;;;19.25;69.44;101830.47;5040392;28;20045;-43
2021/07/15 01:26:37;;;;;;;4.97;3.53;;;;;;;19.14;69.96;101833.13;5028858;28;20107;-44
2021/07/15 01:29:14;;;;;;;4.40;2.63;;;;;;;19.09;69.92;101841.06;5022330;28;20044;-43
2021/07/15 01:31:47;;;;;;;4.60;3.20;;;;;;;19.07;69.74;101849.03;5026313;28;20773;-49
2021/07/15 01:34:18;;;;;;;16.73;4.18;;;;;;;19.02;69.72;101841.75;5022727;28;20168;-50
2021/07/15 01:36:49;;;;;;;3.85;2.40;;;;;;;18.99;69.92;101841.69;5029960;28;20050;-44
2021/07/15 01:39:20;;;;;;;6.53;2.95;;;;;;;19.04;69.68;101846.97;5039088;28;20075;-45
2021/07/15 01:41:51;;;;;;;6.63;3.13;;;;;;;19.09;69.88;101844.66;5028472;28;20055;-46
2021/07/15 01:44:22;;;;;;;;;;;;;;;19.15;69.80;101856.38;5027271;28;20077;-46
2021/07/15 01:46:50;;;;;;;4.32;2.45;;;;;;;19.14;69.52;101838.72;5027671;28;19929;-52
2021/07/15 01:49:17;;;;;;;4.20;2.78;;;;;;;19.07;69.72;101843.44;5024854;28;20391;-45
2021/07/15 01:51:44;;;;;;;3.50;2.10;;;;;;;19.01;69.87;101845.75;5030411;28;20057;-43
2021/07/15 01:54:12;;;;;;;4.45;2.00;;;;;;;19.06;69.82;101848.22;5027547;28;20057;-43
2021/07/15 01:56:41;;;;;;;3.22;1.90;;;;;;;19.00;70.03;101844.13;5032436;28;20049;-50
2021/07/15 01:59:12;;;;;;;5.38;2.67;;;;;;;18.88;70.26;101840.72;5030811;28;20160;-52
2021/07/15 02:01:42;;;;;;;3.83;2.03;;;;;;;18.93;70.30;101832.00;5024017;28;20057;-48
2021/07/15 02:04:11;;;;;;;6.40;2.92;;;;;;;18.92;70.26;101841.56;5026113;28;20049;-43
2021/07/15 02:06:41;;;;;;;4.85;2.00;;;;;;;18.88;70.42;101843.53;5032172;28;20045;-43
2021/07/15 02:09:12;;;;;;;6.07;2.38;;;;;;;18.74;70.59;101836.47;5025469;28;20057;-42
2021/07/15 02:11:41;;;;;;;6.55;2.08;;;;;;;18.78;70.11;101844.94;5037595;28;20061;-45
2021/07/15 02:14:12;;;;;;;5.88;1.92;;;;;;;18.81;70.48;101847.81;5048300;28;20055;-43
2021/07/15 02:16:48;;;;;;;3.67;1.63;;;;;;;18.82;70.61;101857.06;5046872;28;20480;-48
2021/07/15 02:19:15;;;;;;;3.38;3.00;;;;;;;18.90;70.24;101849.56;5049210;28;20517;-44
2021/07/15 02:21:46;;;;;;;3.22;2.22;;;;;;;18.92;69.93;101852.81;5025781;28;20055;-51
2021/07/15 02:24:15;;;;;;;4.07;2.00;;;;;;;18.87;69.88;101853.13;5027381;28;20123;-47
2021/07/15 02:26:45;;;;;;;3.75;1.70;;;;;;;18.85;69.57;101859.91;5045612;28;20053;-51
2021/07/15 02:29:12;;;;;;;4.43;2.58;;;;;;;18.81;69.44;101847.81;5049407;28;20434;-43
2021/07/15 02:31:56;;;;;;;4.22;1.90;;;;;;;18.75;69.35;101854.94;5032906;28;20045;-43
2021/07/15 02:34:28;;;;;;;2.45;1.75;;;;;;;18.71;68.99;101848.47;5041346;28;20057;-44
2021/07/15 02:36:58;;;;;;;5.70;2.10;;;;;;;18.67;68.97;101857.97;5049091;28;20048;-44
2021/07/15 02:39:25;;;;;;;4.00;2.30;;;;;;;18.61;69.21;101854.66;5048267;28;20048;-42
2021/07/15 02:41:53;;;;;;;2.70;2.10;;;;;;;18.56;68.96;101857.78;5044332;28;20914;-49
2021/07/15 02:44:20;;;;;;;4.05;2.08;;;;;;;18.55;69.11;101850.56;5046291;28;20056;-43
2021/07/15 02:46:47;;;;;;;4.65;2.50;;;;;;;18.54;69.05;101848.13;5044935;28;20049;-48
2021/07/15 02:49:14;;;;;;;6.18;4.18;;;;;;;18.51;68.97;101843.25;5042887;28;20143;-44
2021/07/15 02:51:41;;;;;;;8.63;5.28;;;;;;;18.49;68.88;101852.03;5046582;28;20842;-50
2021/07/15 02:54:07;;;;;;;13.93;8.25;;;;;;;18.45;68.81;101842.75;5045548;28;20049;-43
2021/07/15 02:56:43;;;;;;;27.25;20.75;;;;;;;18.36;68.84;101842.16;5026526;28;20058;-44
2021/07/15 02:59:10;;;;;;;28.40;20.17;;;;;;;18.37;68.64;101840.16;5045328;28;20044;-43
2021/07/15 03:01:45;;;;;;;13.70;11.15;;;;;;;18.30;68.95;101837.22;5046005;28;20059;-42
2021/07/15 03:04:23;;;;;;;5.63;4.63;;;;;;;18.25;68.98;101846.72;5044048;28;20048;-43
2021/07/15 03:06:51;;;;;;;9.85;5.25;;;;;;;18.22;69.00;101841.88;5053659;28;20067;-51
2021/07/15 03:09:26;;;;;;;5.47;4.85;;;;;;;18.16;69.20;101849.75;5029273;28;20084;-52
2021/07/15 03:12:16;;;;;;;2.53;2.28;;;;;;;18.15;69.28;101841.75;5042401;28;20743;-43
2021/07/15 03:14:45;;;;;;;2.15;1.88;;;;;;;18.16;68.76;101844.16;5046144;28;20147;-43
2021/07/15 03:17:19;;;;;;;2.25;1.67;;;;;;;18.13;68.97;101844.91;5046047;28;20066;-44
2021/07/15 03:19:49;;;;;;;2.70;1.70;;;;;;;18.17;68.69;101844.97;5021904;28;21489;-47
2021/07/15 03:22:17;;;;;;;2.85;1.90;;;;;;;18.12;68.64;101845.28;5045508;28;20793;-43
2021/07/15 03:24:53;;;;;;;6.38;2.40;;;;;;;17.99;69.07;101841.00;5047382;28;20803;-47
2021/07/15 03:27:21;;;;;;;2.92;2.03;;;;;;;17.94;69.11;101841.31;5046959;28;20051;-43
2021/07/15 03:29:49;;;;;;;4.35;2.92;;;;;;;17.92;69.20;101838.06;5046394;28;20052;-42
2021/07/15 03:32:16;;;;;;;4.70;2.08;;;;;;;17.88;69.33;101837.16;5047096;28;20057;-47
2021/07/15 03:34:43;;;;;;;2.47;1.65;;;;;;;17.83;69.42;101837.47;5040203;28;20400;-42
2021/07/15 03:37:10;;;;;;;2.40;1.88;;;;;;;17.81;69.52;101843.44;5048415;28;20112;-42
2021/07/15 03:39:45;;;;;;;3.72;2.00;;;;;;;17.80;69.56;101832.59;5046943;28;20421;-47
2021/07/15 03:42:15;;;;;;;4.70;2.10;;;;;;;17.76;69.49;101826.94;5045267;28;20053;-49
2021/07/15 03:44:43;;;;;;;2.78;1.73;;;;;;;17.67;69.61;101820.72;5044320;28;20076;-43
2021/07/15 03:47:11;;;;;;;3.85;2.13;;;;;;;17.59;69.76;101818.94;5029346;28;20462;-43
2021/07/15 03:49:43;;;;;;;4.82;1.80;;;;;;;17.52;69.79;101827.97;5046986;28;20056;-49
2021/07/15 03:52:13;;;;;;;4.22;2.60;;;;;;;17.47;70.18;101828.25;5048591;28;20410;-44
2021/07/15 03:54:41;;;;;;;4.65;2.00;;;;;;;17.53;70.16;101837.19;5047884;28;20065;-49
2021/07/15 03:57:14;;;;;;;2.95;1.98;;;;;;;17.52;70.29;101835.56;5044855;28;20044;-43
2021/07/15 03:59:48;;;;;;;4.00;2.53;;;;;;;17.49;70.21;101834.31;5042893;28;20088;-43
2021/07/15 04:02:21;;;;;;;4.60;2.30;;;;;;;17.42;70.48;101842.53;5044011;28;20896;-47
2021/07/15 04:04:56;;;;;;;3.95;2.50;;;;;;;17.38;70.76;101846.44;5045753;28;20115;-47
2021/07/15 04:07:30;;;;;;;5.30;2.50;;;;;;;17.32;70.91;101851.50;5051873;28;20044;-45
2021/07/15 04:09:58;;;;;;;2.45;2.15;;;;;;;17.31;70.37;101849.88;5048813;28;20053;-42
2021/07/15 04:12:30;;;;;;;3.42;2.20;;;;;;;17.26;70.67;101850.13;5050673;28;20386;-43
2021/07/15 04:15:02;;;;;;;5.75;2.00;;;;;;;17.23;70.78;101862.09;5049513;28;20487;-46
2021/07/15 04:17:51;;;;;;;4.38;1.70;;;;;;;17.20;70.95;101860.00;5052346;28;20064;-53
2021/07/15 04:20:20;;;;;;;4.25;2.10;;;;;;;17.26;70.46;101866.94;5049411;28;20067;-46
2021/07/15 04:22:51;;;;;;;5.20;2.28;;;;;;;17.32;70.42;101875.88;5051208;28;22105;-43
2021/07/15 04:25:21;;;;;;;3.95;2.42;;;;;;;17.32;70.71;101876.69;5044727;28;20152;-52
2021/07/15 04:27:55;;;;;;;6.03;2.83;;;;;;;17.36;70.52;101874.81;5050168;28;20760;-47
2021/07/15 04:30:23;;;;;;;5.32;2.25;;;;;;;17.43;70.47;101877.75;5050277;28;20266;-50
2021/07/15 04:33:04;;;;;;;5.60;2.55;;;;;;;17.45;70.69;101881.00;5051351;28;20052;-43
2021/07/15 04:35:34;;;;;;;6.25;2.33;;;;;;;17.51;70.44;101887.94;5046346;28;20041;-44
2021/07/15 04:38:02;;;;;;;5.80;2.67;;;;;;;17.48;70.58;101897.06;5035416;28;20061;-52
2021/07/15 04:40:30;;;;;;;4.78;2.38;;;;;;;17.48;70.57;101901.84;5051176;28;20095;-48
2021/07/15 04:42:59;;;;;;;6.22;2.72;;;;;;;17.50;70.56;101905.91;5049649;28;20063;-52
2021/07/15 04:45:27;;;;;;;4.88;2.35;;;;;;;17.56;70.43;101910.09;5046829;28;20144;-45
2021/07/15 04:47:56;;;;;;;6.28;2.70;;;;;;;17.57;70.52;101911.72;5048345;28;20082;-47
2021/07/15 04:50:26;;;;;;;4.85;2.75;;;;;;;17.55;70.57;101928.06;5043654;28;20064;-46
2021/07/15 04:53:01;;;;;;;3.17;2.30;;;;;;;17.58;70.49;101930.13;5048806;28;20490;-45
2021/07/15 04:55:29;;;;;;;5.25;2.35;;;;;;;17.56;70.60;101931.69;5052495;28;20049;-47
2021/07/15 04:57:56;;;;;;;6.07;2.25;;;;;;;17.61;70.58;101935.00;5048957;28;20045;-43
2021/07/15 05:00:26;;;;;;;3.83;2.20;;;;;;;17.65;70.49;101943.50;5046121;28;20496;-43
2021/07/15 05:03:19;;;;;;;4.25;2.25;;;;;;;17.61;70.79;101951.81;5044321;28;20044;-43
2021/07/15 05:05:46;;;;;;;5.82;3.28;;;;;;;17.61;70.55;101951.81;5048393;28;20507;-46
2021/07/15 05:08:13;;;;;;;5.97;3.75;;;;;;;17.66;70.52;101952.72;5049648;28;20095;-44
2021/07/15 05:10:42;;;;;;;6.35;3.00;;;;;;;17.70;70.71;101956.41;5045363;28;20067;-43
2021/07/15 05:13:10;;;;;;;5.93;2.28;;;;;;;17.64;70.58;101965.09;5047144;28;20052;-42
2021/07/15 05:15:37;;;;;;;7.15;2.55;;;;;;;17.65;70.24;101968.72;5048796;28;20059;-47
2021/07/15 05:18:05;;;;;;;4.95;2.45;;;;;;;17.66;70.38;101969.53;5047938;28;20064;-43
2021/07/15 05:20:32;;;;;;;4.82;2.55;;;;;;;17.64;70.25;101965.09;5035556;28;20052;-52
2021/07/15 05:22:59;;;;;;;3.55;2.60;;;;;;;17.64;70.12;101973.50;5050587;28;20048;-43
2021/07/15 05:25:26;;;;;;;5.35;2.85;;;;;;;17.66;70.25;101977.94;5052726;28;20053;-43
2021/07/15 05:27:55;;;;;;;5.32;2.38;;;;;;;17.67;70.35;101971.16;5048623;28;20137;-45
2021/07/15 05:30:22;;;;;;;4.50;2.13;;;;;;;17.63;70.40;101971.06;5052122;28;20062;-50
2021/07/15 05:32:49;;;;;;;7.88;2.58;;;;;;;17.63;70.42;101974.66;5048207;28;20152;-48
2021/07/15 05:35:16;;;;;;;5.00;2.28;;;;;;;17.67;70.58;101969.16;5048049;28;20600;-44
2021/07/15 05:37:44;;;;;;;6.68;2.30;;;;;;;17.72;70.17;101979.25;5043597;28;20084;-50
2021/07/15 05:40:14;;;;;;;5.25;2.25;;;;;;;17.72;70.03;101990.47;5027834;28;20156;-44
2021/07/15 05:42:40;;;;;;;4.57;2.05;;;;;;;17.73;70.17;101981.72;5046535;28;20059;-49
2021/07/15 05:45:10;;;;;;;4.32;1.90;;;;;;;17.67;70.11;101990.75;5050160;28;20041;-43
2021/07/15 05:47:36;;;;;;;3.60;2.63;;;;;;;17.57;70.04;101995.75;5047030;28;20406;-44
2021/07/15 05:50:05;;;;;;;2.80;1.50;;;;;;;17.52;70.10;102003.56;5047979;28;21509;-52
2021/07/15 05:52:32;;;;;;;2.92;1.75;;;;;;;17.59;69.90;102000.97;5046820;28;20106;-43
2021/07/15 05:54:59;;;;;;;3.30;1.58;;;;;;;17.56;69.89;102013.72;5048680;28;21151;-45
2021/07/15 05:57:26;;;;;;;2.20;1.60;;;;;;;17.55;69.74;102009.28;5052380;28;20409;-43
2021/07/15 05:59:53;;;;;;;2.47;1.95;;;;;;;17.53;69.86;102005.22;5027149;28;20067;-43
2021/07/15 06:02:20;;;;;;;2.78;1.75;;;;;;;17.50;70.06;102009.50;5043946;28;20217;-45
2021/07/15 06:04:46;;;;;;;2.20;1.55;;;;;;;17.55;70.22;102020.47;5050214;28;20094;-46
2021/07/15 06:07:13;;;;;;;4.60;1.50;;;;;;;17.58;69.71;102019.75;5051253;28;20088;-43
2021/07/15 06:09:40;;;;;;;2.00;1.48;;;;;;;17.59;69.78;102027.00;5048032;28;20087;-46
2021/07/15 06:12:07;;;;;;;5.53;2.00;;;;;;;17.64;69.76;102023.91;5046845;28;20061;-49
2021/07/15 06:14:34;;;;;;;2.63;1.48;;;;;;;17.63;69.73;102027.09;5050377;28;20057;-47
2021/07/15 06:17:02;;;;;;;2.63;1.88;;;;;;;17.63;69.84;102044.69;5040940;28;20743;-45
2021/07/15 06:19:29;;;;;;;3.10;1.52;;;;;;;17.71;69.62;102042.09;5050805;28;20060;-45
2021/07/15 06:21:57;;;;;;;4.13;1.95;;;;;;;17.67;69.89;102033.56;5046710;28;20044;-44
2021/07/15 06:24:24;;;;;;;2.85;1.42;;;;;;;17.71;69.67;102028.91;5047509;28;20048;-43
2021/07/15 06:26:51;;;;;;;1.70;1.38;;;;;;;17.75;69.74;102037.38;5049642;28;20076;-43
2021/07/15 06:29:18;;;;;;;2.65;1.55;;;;;;;17.78;69.70;102042.25;5045368;28;20052;-49
2021/07/15 06:31:45;;;;;;;2.30;1.42;;;;;;;17.78;69.56;102045.03;5047678;28;20045;-43
2021/07/15 06:34:15;;;;;;;1.88;1.50;;;;;;;17.83;69.53;102036.38;5049027;28;20137;-47
2021/07/15 06:36:44;;;;;;;3.80;2.15;;;;;;;17.85;69.46;102039.59;5047095;28;20056;-43
2021/07/15 06:39:12;;;;;;;3.58;1.60;;;;;;;17.84;69.40;102047.22;5041781;28;20480;-44
2021/07/15 06:41:39;;;;;;;2.40;1.35;;;;;;;17.84;69.39;102049.22;5046138;28;20059;-43
2021/07/15 06:44:06;;;;;;;4.43;1.77;;;;;;;17.84;69.54;102035.19;5048040;28;20053;-50
2021/07/15 06:46:33;;;;;;;3.47;1.95;;;;;;;17.90;69.49;102033.72;5043779;28;20138;-47
2021/07/15 06:49:00;;;;;;;2.17;1.58;;;;;;;17.90;69.36;102047.72;5044728;28;20049;-43
2021/07/15 06:51:27;;;;;;;2.22;1.60;;;;;;;17.90;69.42;102045.75;5047668;28;20162;-42
2021/07/15 06:53:54;;;;;;;4.75;2.05;;;;;;;17.91;69.39;102043.78;5046569;28;20052;-43
2021/07/15 06:56:20;;;;;;;2.33;1.48;;;;;;;18.02;69.25;102056.88;5045388;28;20059;-44
2021/07/15 06:58:48;;;;;;;2.47;1.50;;;;;;;18.05;69.00;102060.94;5041673;28;20091;-43
2021/07/15 07:01:15;;;;;;;4.50;1.23;;;;;;;18.09;69.01;102057.03;5047355;28;20069;-52
2021/07/15 07:03:41;;;;;;;2.83;1.35;;;;;;;18.13;68.95;102051.53;5046262;28;20049;-43
2021/07/15 07:06:08;;;;;;;3.53;1.35;;;;;;;18.18;68.92;102056.84;5048277;28;20069;-45
2021/07/15 07:08:35;;;;;;;4.30;1.30;;;;;;;18.19;68.63;102056.47;5046555;28;20462;-43
2021/07/15 07:11:02;;;;;;;5.43;1.58;;;;;;;18.18;69.00;102059.66;5049550;28;20048;-44
2021/07/15 07:13:28;;;;;;;2.08;1.42;;;;;;;18.16;69.14;102056.41;5029329;28;20059;-45
2021/07/15 07:15:55;;;;;;;2.45;1.45;;;;;;;18.14;69.20;102058.72;5045710;28;20135;-43
2021/07/15 07:18:23;;;;;;;5.10;2.20;;;;;;;18.20;68.88;102062.88;5044440;28;20556;-45
2021/07/15 07:20:50;;;;;;;2.95;1.13;;;;;;;18.24;68.85;102061.00;5045048;28;20060;-48
2021/07/15 07:23:17;;;;;;;6.75;1.52;;;;;;;18.26;68.79;102050.22;5037517;28;20092;-44
2021/07/15 07:25:44;;;;;;;4.57;1.70;;;;;;;18.33;68.50;102055.97;5044170;28;20056;-48
2021/07/15 07:28:12;;;;;;;2.88;1.63;;;;;;;18.33;68.58;102058.78;5045573;28;20585;-43
2021/07/15 07:30:39;;;;;;;2.63;2.03;;;;;;;18.38;68.54;102061.28;5046459;28;20057;-50
2021/07/15 07:33:09;;;;;;;3.05;1.58;;;;;;;18.38;68.02;102069.72;5046699;28;20056;-46
2021/07/15 07:35:36;;;;;;;3.05;1.55;;;;;;;18.32;68.33;102065.56;5045823;28;20044;-44
2021/07/15 07:38:03;;;;;;;3.65;1.77;;;;;;;18.28;67.92;102073.09;5029289;28;20135;-44
2021/07/15 07:40:30;;;;;;;2.53;1.55;;;;;;;18.28;68.02;102070.28;5046210;28;20053;-42
2021/07/15 07:42:57;;;;;;;3.53;1.88;;;;;;;18.35;68.14;102064.81;5044919;28;20700;-46
2021/07/15 07:45:24;;;;;;;2.90;2.05;;;;;;;18.36;67.83;102066.47;5046486;28;20052;-43
2021/07/15 07:47:51;;;;;;;5.05;1.92;;;;;;;18.39;67.97;102085.38;5052000;28;20557;-45
2021/07/15 07:50:18;;;;;;;3.17;1.98;;;;;;;18.32;68.11;102073.97;5047832;28;20084;-46
2021/07/15 07:52:45;;;;;;;2.50;1.55;;;;;;;18.31;68.13;102075.16;5046406;28;20141;-43
2021/07/15 07:55:16;;;;;;;1.98;1.30;;;;;;;18.29;67.82;102083.13;5046224;28;20053;-48
2021/07/15 07:57:43;;;;;;;6.50;1.63;;;;;;;18.30;68.04;102078.31;5046152;28;20055;-43
2021/07/15 08:00:13;;;;;;;2.15;1.27;;;;;;;18.36;68.08;102082.47;5047077;28;20048;-44
2021/07/15 08:02:41;;;;;;;4.50;1.45;;;;;;;18.47;67.90;102078.78;5045742;28;20053;-44
2021/07/15 08:05:10;;;;;;;5.28;1.85;;;;;;;18.45;67.95;102080.28;5044330;28;21608;-46
2021/07/15 08:07:39;;;;;;;5.05;1.58;;;;;;;18.41;67.92;102090.59;5044444;28;20396;-43
2021/07/15 08:10:12;;;;;;;5.93;2.20;;;;;;;18.43;68.03;102094.66;5048464;28;20057;-48
2021/07/15 08:12:39;;;;;;;4.53;1.50;;;;;;;18.42;67.94;102081.84;5044897;28;20051;-42
2021/07/15 08:15:07;;;;;;;5.45;1.85;;;;;;;18.51;67.69;102085.25;5045125;28;20053;-44
2021/07/15 08:17:35;;;;;;;1.67;1.38;;;;;;;18.62;67.61;102096.72;5027054;28;20110;-42
2021/07/15 08:20:08;;;;;;;2.90;1.98;;;;;;;18.65;67.79;102091.19;5045961;28;20049;-44
2021/07/15 08:22:35;;;;;;;6.97;2.17;;;;;;;18.72;67.52;102099.75;5044937;28;20151;-43
2021/07/15 08:25:03;;;;;;;3.45;1.40;;;;;;;18.76;67.39;102103.47;5046134;28;20056;-43
2021/07/15 08:27:31;;;;;;;4.30;2.60;;;;;;;18.70;67.36;102102.13;5038977;28;20060;-51
2021/07/15 08:30:02;;;;;;;2.15;1.58;;;;;;;18.72;67.38;102098.94;5040179;28;20150;-50
2021/07/15 08:32:29;;;;;;;3.60;1.63;;;;;;;18.73;67.35;102087.34;5041174;28;20053;-44
2021/07/15 08:35:09;;;;;;;2.63;1.58;;;;;;;18.81;67.41;102105.97;5041883;28;20068;-45
2021/07/15 08:37:37;;;;;;;4.63;1.67;;;;;;;18.83;67.47;102102.78;5044171;28;20056;-43
2021/07/15 08:40:05;;;;;;;3.00;2.13;;;;;;;18.87;67.44;102105.69;5046442;28;20045;-44
2021/07/15 08:42:33;;;;;;;3.13;1.42;;;;;;;18.85;67.24;102095.63;5044799;28;20073;-45
2021/07/15 08:45:02;;;;;;;1.67;1.48;;;;;;;18.89;67.24;102089.28;5044612;28;20502;-43
2021/07/15 08:47:30;;;;;;;2.25;1.45;;;;;;;18.93;67.47;102090.19;5043089;28;20057;-46
2021/07/15 08:49:58;;;;;;;2.55;1.65;;;;;;;19.10;67.35;102089.72;5047767;28;20059;-47
2021/07/15 08:52:26;;;;;;;2.05;1.58;;;;;;;19.12;66.83;102095.75;5049518;28;20136;-49
2021/07/15 08:57:20;;;;;;;3.97;2.25;;;;;;;19.26;66.25;102096.06;5047189;28;20045;-43
2021/07/15 08:59:47;;;;;;;3.20;2.05;;;;;;;19.31;66.35;102090.94;5047175;28;20131;-43
2021/07/15 09:02:22;;;;;;;2.28;1.80;;;;;;;19.37;66.02;102100.72;5046279;28;20088;-45
2021/07/15 09:04:51;;;;;;;3.25;1.58;;;;;;;19.51;66.04;102100.19;5051020;28;20057;-43
2021/07/15 09:07:18;;;;;;;3.50;1.73;;;;;;;19.52;65.42;102107.41;5049263;28;20067;-45
2021/07/15 09:09:46;;;;;;;2.00;1.75;;;;;;;19.65;65.47;102097.63;5049359;28;20052;-43
2021/07/15 09:12:13;;;;;;;3.35;2.20;;;;;;;19.85;65.28;102084.31;5049638;28;20425;-51
2021/07/15 09:14:49;;;;;;;2.63;1.92;;;;;;;20.07;64.11;102074.25;5047900;28;20136;-44
2021/07/15 09:17:30;;;;;;;2.55;1.80;;;;;;;20.36;64.00;102070.69;5049354;28;20501;-46
2021/07/15 09:19:57;;;;;;;3.50;1.83;;;;;;;20.44;64.31;102092.09;5051907;28;20056;-43
2021/07/15 09:22:25;;;;;;;4.53;1.90;;;;;;;20.42;63.92;102105.72;5049646;28;20045;-49
2021/07/15 09:24:52;;;;;;;3.63;1.80;;;;;;;20.36;63.82;102096.03;5050475;28;20053;-48
2021/07/15 09:27:21;;;;;;;3.63;2.78;;;;;;;20.41;63.18;102084.44;5052412;28;20398;-51
2021/07/15 09:30:12;;;;;;;6.00;2.42;;;;;;;20.89;62.75;102083.47;5051854;28;20055;-44
2021/07/15 09:32:58;;;;;;;5.03;2.22;;;;;;;21.32;62.44;102084.81;5048999;28;20052;-52
2021/07/15 09:35:29;;;;;;;8.85;3.67;;;;;;;21.65;61.98;102086.75;5049726;28;20052;-46
2021/07/15 09:38:09;;;;;;;4.72;3.05;;;;;;;21.77;60.46;102087.28;5051861;28;20079;-45
2021/07/15 09:41:04;;;;;;;3.63;1.92;;;;;;;22.09;58.96;102067.81;5048196;28;20472;-46
2021/07/15 09:43:32;;;;;;;3.33;2.00;;;;;;;22.37;60.28;102076.47;5045907;28;20041;-45
2021/07/15 09:46:15;;;;;;;2.10;1.90;;;;;;;22.63;59.62;102077.47;5050258;28;20124;-48
2021/07/15 09:48:46;;;;;;;4.15;2.25;;;;;;;22.60;59.00;102084.69;5051596;28;20481;-44
2021/07/15 09:51:15;;;;;;;5.07;3.35;;;;;;;22.60;58.44;102087.50;5050279;28;20060;-44
2021/07/15 09:53:42;;;;;;;6.80;2.60;;;;;;;22.80;58.18;102076.72;5048389;28;20191;-49
2021/07/15 09:56:16;;;;;;;2.63;2.33;;;;;;;23.23;57.59;102072.03;5047795;28;20059;-44
2021/07/15 09:58:48;;;;;;;3.28;2.53;;;;;;;23.64;56.96;102076.19;5047781;28;20048;-44
2021/07/15 10:01:17;;;;;;;2.80;2.17;;;;;;;24.23;55.98;102080.22;5050531;28;20062;-44
2021/07/15 10:03:48;;;;;;;4.50;2.05;;;;;;;24.30;55.24;102079.41;5049281;28;20523;-46
2021/07/15 10:06:16;;;;;;;5.05;2.45;;;;;;;24.23;55.00;102088.72;5049351;28;20107;-43
2021/07/15 10:08:54;;;;;;;4.65;2.78;;;;;;;24.03;55.00;102076.19;5048895;28;20053;-46
2021/07/15 10:11:23;;;;;;;2.78;2.00;;;;;;;24.00;55.21;102068.50;5052263;28;20115;-47
2021/07/15 10:14:08;;;;;;;4.63;2.58;;;;;;;24.35;54.08;102065.66;5055589;28;20060;-44
2021/07/15 10:16:45;;;;;;;4.55;2.88;;;;;;;24.95;53.50;102065.47;5049945;28;20059;-44
2021/07/15 10:19:22;;;;;;;2.60;2.40;;;;;;;25.45;52.04;102074.50;5030433;28;20049;-50
2021/07/15 10:21:57;;;;;;;2.78;2.17;;;;;;;25.77;51.19;102072.25;5044139;28;20045;-44
2021/07/15 10:24:25;;;;;;;6.50;2.25;;;;;;;25.95;51.12;102055.88;5049870;28;20724;-49
2021/07/15 10:27:04;;;;;;;4.70;2.22;;;;;;;26.27;50.76;102055.59;5048071;28;20155;-48
2021/07/15 10:29:32;;;;;;;5.65;2.70;;;;;;;26.26;50.29;102059.69;5047241;28;20056;-51
2021/07/15 10:32:00;;;;;;;3.03;2.38;;;;;;;26.20;49.86;102066.25;5049103;28;20041;-45
2021/07/15 10:34:29;;;;;;;4.20;2.50;;;;;;;26.35;49.56;102062.00;5049228;28;20155;-51
2021/07/15 10:37:00;;;;;;;2.97;2.78;;;;;;;26.56;48.76;102056.09;5047111;28;20163;-51
2021/07/15 10:39:29;;;;;;;3.05;2.75;;;;;;;26.52;48.49;102055.34;5049311;28;20454;-47
2021/07/15 10:41:58;;;;;;;3.15;2.83;;;;;;;26.31;47.98;102056.41;5048876;28;20049;-44
2021/07/15 10:44:28;;;;;;;3.90;3.10;;;;;;;26.05;48.96;102053.38;5045793;28;20052;-46
2021/07/15 10:46:57;;;;;;;3.78;2.85;;;;;;;25.46;49.76;102056.31;5049675;28;20175;-47
2021/07/15 10:49:24;;;;;;;2.78;2.30;;;;;;;25.37;49.79;102059.56;5050667;28;20647;-43
2021/07/15 10:51:53;;;;;;;3.42;2.28;;;;;;;25.17;49.92;102060.50;5048717;28;20062;-45
2021/07/15 10:54:21;;;;;;;2.25;2.05;;;;;;;25.32;49.85;102057.16;5049411;28;20807;-47
2021/07/15 10:56:49;;;;;;;2.83;2.50;;;;;;;25.50;49.93;102059.91;5044934;28;20606;-45
2021/07/15 10:59:29;;;;;;;2.40;1.88;;;;;;;25.62;50.04;102069.97;5048953;28;20052;-49
2021/07/15 11:02:03;;;;;;;2.30;2.00;;;;;;;25.57;50.08;102062.72;5046744;28;20099;-49
2021/07/15 11:04:38;;;;;;;2.22;2.03;;;;;;;25.40;50.00;102069.25;5029769;28;20126;-51
2021/07/15 11:07:33;;;;;;;3.03;2.10;;;;;;;25.40;49.96;102063.59;5047444;28;20053;-45
2021/07/15 11:10:18;;;;;;;2.60;2.40;;;;;;;25.41;50.46;102074.53;5046606;28;20044;-44
2021/07/15 11:12:59;;;;;;;3.30;2.42;;;;;;;25.25;50.17;102073.41;5044820;28;20083;-48
2021/07/15 11:15:47;;;;;;;4.80;3.80;;;;;;;25.12;51.38;102070.25;5048181;28;20125;-51
2021/07/15 11:21:30;;;;;;;3.40;2.78;;;;;;;25.57;50.98;102067.56;5037066;28;20063;-45
2021/07/15 11:24:03;;;;;;;3.95;2.58;;;;;;;25.35;50.90;102066.88;5048040;28;20061;-54
2021/07/15 11:26:30;;;;;;;2.80;2.25;;;;;;;25.08;51.61;102068.63;5045403;28;20076;-45
2021/07/15 11:28:57;;;;;;;3.08;2.05;;;;;;;25.18;51.89;102059.28;5050193;28;20385;-43
2021/07/15 11:31:40;;;;;;;4.68;2.90;;;;;;;25.13;51.77;102046.34;5044512;28;20146;-49
2021/07/15 11:34:07;;;;;;;3.55;2.42;;;;;;;25.09;52.17;102051.25;5045550;28;20484;-42
2021/07/15 11:36:35;;;;;;;5.93;2.88;;;;;;;25.18;52.06;102056.44;5044775;28;20057;-42
2021/07/15 11:39:07;;;;;;;3.63;2.95;;;;;;;25.18;52.19;102062.09;5044216;28;20477;-44
2021/07/15 11:41:47;;;;;;;3.10;2.80;;;;;;;25.15;51.61;102062.97;5047216;28;20057;-45
2021/07/15 11:44:17;;;;;;;4.25;2.38;;;;;;;25.18;52.08;102059.28;5028649;28;20139;-46